sensor_id;sensor_type;location;lat;lon;timestamp;temperature;humidity
74488;DHT22;63019;51.080;13.642;2024-02-15T00:00:06;9.30;99.90
74488;DHT22;63019;51.080;13.642;2024-02-15T00:01:10;9.30;99.90
74488;DHT22;63019;51.080;13.642;2024-02-15T00:02:12;9.20;99.90
74488;DHT22;63019;51.080;13.642;2024-02-15T00:03:14;9.20;99.90
74488;DHT22;63019;51.080;13.642;2024-02-15T00:04:16;9.20;99.90
74488;DHT22;63019;51.080;13.642;2024-02-15T00:05:19;9.20;99.90
74488;DHT22;63019;51.080;13.642;2024-02-15T00:06:21;9.10;99.90
74488;DHT22;63019;51.080;13.642;2024-02-15T00:07:24;9.10;99.90
74488;DHT22;63019;51.080;13.642;2024-02-15T00:08:26;9.10;99.90
74488;DHT22;63019;51.080;13.642;2024-02-15T00:09:28;9.10;99.90
74488;DHT22;63019;51.080;13.642;2024-02-15T00:10:30;9.10;99.90
74488;DHT22;63019;51.080;13.642;2024-02-15T00:11:32;9.10;99.90
74488;DHT22;63019;51.080;13.642;2024-02-15T00:12:35;9.10;99.90
74488;DHT22;63019;51.080;13.642;2024-02-15T00:13:37;9.10;99.90
74488;DHT22;63019;51.080;13.642;2024-02-15T00:14:39;9.10;99.90
74488;DHT22;63019;51.080;13.642;2024-02-15T00:15:41;9.10;99.90
74488;DHT22;63019;51.080;13.642;2024-02-15T00:16:43;9.10;99.90
74488;DHT22;63019;51.080;13.642;2024-02-15T00:17:45;9.10;99.90
74488;DHT22;63019;51.080;13.642;2024-02-15T00:18:50;9.10;99.90
74488;DHT22;63019;51.080;13.642;2024-02-15T00:19:52;9.10;99.90
74488;DHT22;63019;51.080;13.642;2024-02-15T00:20:54;9.10;99.90
74488;DHT22;63019;51.080;13.642;2024-02-15T00:21:56;9.10;99.90
74488;DHT22;63019;51.080;13.642;2024-02-15T00:22:58;9.10;99.90
74488;DHT22;63019;51.080;13.642;2024-02-15T00:24:00;9.10;99.90
74488;DHT22;63019;51.080;13.642;2024-02-15T00:25:02;9.10;99.90
74488;DHT22;63019;51.080;13.642;2024-02-15T00:26:04;9.10;99.90
74488;DHT22;63019;51.080;13.642;2024-02-15T00:27:07;9.10;99.90
74488;DHT22;63019;51.080;13.642;2024-02-15T00:28:08;9.10;99.90
74488;DHT22;63019;51.080;13.642;2024-02-15T00:29:10;9.10;99.90
74488;DHT22;63019;51.080;13.642;2024-02-15T00:30:13;9.10;99.90
74488;DHT22;63019;51.080;13.642;2024-02-15T00:31:15;9.10;99.90
74488;DHT22;63019;51.080;13.642;2024-02-15T00:32:17;9.10;99.90
74488;DHT22;63019;51.080;13.642;2024-02-15T00:33:19;9.10;99.90
74488;DHT22;63019;51.080;13.642;2024-02-15T00:34:22;9.10;99.90
74488;DHT22;63019;51.080;13.642;2024-02-15T00:35:24;9.10;99.90
74488;DHT22;63019;51.080;13.642;2024-02-15T00:36:28;9.10;99.90
74488;DHT22;63019;51.080;13.642;2024-02-15T00:37:31;9.10;99.90
74488;DHT22;63019;51.080;13.642;2024-02-15T00:38:33;9.00;99.90
74488;DHT22;63019;51.080;13.642;2024-02-15T00:39:35;9.10;99.90
74488;DHT22;63019;51.080;13.642;2024-02-15T00:40:37;9.10;99.90
74488;DHT22;63019;51.080;13.642;2024-02-15T00:41:40;9.00;99.90
74488;DHT22;63019;51.080;13.642;2024-02-15T00:42:44;9.00;99.90
74488;DHT22;63019;51.080;13.642;2024-02-15T00:43:45;9.00;99.90
74488;DHT22;63019;51.080;13.642;2024-02-15T00:44:47;9.00;99.90
74488;DHT22;63019;51.080;13.642;2024-02-15T00:45:49;9.00;99.90
74488;DHT22;63019;51.080;13.642;2024-02-15T00:46:51;9.00;99.90
74488;DHT22;63019;51.080;13.642;2024-02-15T00:47:53;9.00;99.90
74488;DHT22;63019;51.080;13.642;2024-02-15T00:48:56;9.00;99.90
74488;DHT22;63019;51.080;13.642;2024-02-15T00:49:59;9.00;99.90
74488;DHT22;63019;51.080;13.642;2024-02-15T00:51:01;9.00;99.90
74488;DHT22;63019;51.080;13.642;2024-02-15T00:52:04;9.00;99.90
74488;DHT22;63019;51.080;13.642;2024-02-15T00:53:06;9.00;99.90
74488;DHT22;63019;51.080;13.642;2024-02-15T00:54:08;9.00;99.90
74488;DHT22;63019;51.080;13.642;2024-02-15T00:55:10;9.00;99.90
74488;DHT22;63019;51.080;13.642;2024-02-15T00:56:12;9.00;99.90
74488;DHT22;63019;51.080;13.642;2024-02-15T00:57:14;9.00;99.90
74488;DHT22;63019;51.080;13.642;2024-02-15T00:58:16;9.00;99.90
74488;DHT22;63019;51.080;13.642;2024-02-15T00:59:18;9.00;99.90
74488;DHT22;63019;51.080;13.642;2024-02-15T01:00:20;9.00;99.90
74488;DHT22;63019;51.080;13.642;2024-02-15T01:01:22;9.00;99.90
74488;DHT22;63019;51.080;13.642;2024-02-15T01:02:24;9.00;99.90
74488;DHT22;63019;51.080;13.642;2024-02-15T01:03:26;9.00;99.90
74488;DHT22;63019;51.080;13.642;2024-02-15T01:04:29;9.00;99.90
74488;DHT22;63019;51.080;13.642;2024-02-15T01:05:31;9.00;99.90
74488;DHT22;63019;51.080;13.642;2024-02-15T01:06:33;9.00;99.90
74488;DHT22;63019;51.080;13.642;2024-02-15T01:07:35;9.00;99.90
74488;DHT22;63019;51.080;13.642;2024-02-15T01:08:37;9.00;99.90
74488;DHT22;63019;51.080;13.642;2024-02-15T01:09:40;9.10;99.90
74488;DHT22;63019;51.080;13.642;2024-02-15T01:10:42;9.20;99.90
74488;DHT22;63019;51.080;13.642;2024-02-15T01:11:44;9.30;99.90
74488;DHT22;63019;51.080;13.642;2024-02-15T01:12:46;9.30;99.90
74488;DHT22;63019;51.080;13.642;2024-02-15T01:13:48;9.30;99.90
74488;DHT22;63019;51.080;13.642;2024-02-15T01:14:50;9.30;99.90
74488;DHT22;63019;51.080;13.642;2024-02-15T01:15:52;9.50;99.90
74488;DHT22;63019;51.080;13.642;2024-02-15T01:16:54;9.50;99.90
74488;DHT22;63019;51.080;13.642;2024-02-15T01:17:56;9.60;99.90
74488;DHT22;63019;51.080;13.642;2024-02-15T01:18:58;9.60;99.90
74488;DHT22;63019;51.080;13.642;2024-02-15T01:20:00;9.70;99.90
74488;DHT22;63019;51.080;13.642;2024-02-15T01:21:03;9.70;99.90
74488;DHT22;63019;51.080;13.642;2024-02-15T01:22:05;9.70;99.90
74488;DHT22;63019;51.080;13.642;2024-02-15T01:23:08;9.80;99.90
74488;DHT22;63019;51.080;13.642;2024-02-15T01:24:10;9.80;99.90
74488;DHT22;63019;51.080;13.642;2024-02-15T01:25:12;9.80;99.90
74488;DHT22;63019;51.080;13.642;2024-02-15T01:26:16;9.80;99.90
74488;DHT22;63019;51.080;13.642;2024-02-15T01:27:18;9.90;99.90
74488;DHT22;63019;51.080;13.642;2024-02-15T01:28:20;9.90;99.90
74488;DHT22;63019;51.080;13.642;2024-02-15T01:29:22;9.90;99.90
74488;DHT22;63019;51.080;13.642;2024-02-15T01:30:24;9.90;99.90
74488;DHT22;63019;51.080;13.642;2024-02-15T01:31:26;9.90;99.90
74488;DHT22;63019;51.080;13.642;2024-02-15T01:32:28;9.90;99.90
74488;DHT22;63019;51.080;13.642;2024-02-15T01:33:31;9.90;99.90
74488;DHT22;63019;51.080;13.642;2024-02-15T01:34:33;9.90;99.90
74488;DHT22;63019;51.080;13.642;2024-02-15T01:35:35;9.90;99.90
74488;DHT22;63019;51.080;13.642;2024-02-15T01:36:37;9.90;99.90
74488;DHT22;63019;51.080;13.642;2024-02-15T01:37:39;10.00;99.90
74488;DHT22;63019;51.080;13.642;2024-02-15T01:38:42;10.00;99.90
74488;DHT22;63019;51.080;13.642;2024-02-15T01:39:44;10.00;99.90
74488;DHT22;63019;51.080;13.642;2024-02-15T01:40:47;10.00;99.90
74488;DHT22;63019;51.080;13.642;2024-02-15T01:41:49;10.00;99.90
74488;DHT22;63019;51.080;13.642;2024-02-15T01:42:52;10.00;99.90
74488;DHT22;63019;51.080;13.642;2024-02-15T01:43:54;10.00;99.90
74488;DHT22;63019;51.080;13.642;2024-02-15T01:44:56;10.10;99.90
74488;DHT22;63019;51.080;13.642;2024-02-15T01:45:59;10.10;99.90
74488;DHT22;63019;51.080;13.642;2024-02-15T01:47:05;10.10;99.90
74488;DHT22;63019;51.080;13.642;2024-02-15T01:48:07;10.10;99.90
74488;DHT22;63019;51.080;13.642;2024-02-15T01:49:09;10.10;99.90
74488;DHT22;63019;51.080;13.642;2024-02-15T01:50:13;10.00;99.90
74488;DHT22;63019;51.080;13.642;2024-02-15T01:51:15;10.00;99.90
74488;DHT22;63019;51.080;13.642;2024-02-15T01:52:18;10.00;99.90
74488;DHT22;63019;51.080;13.642;2024-02-15T01:53:20;10.00;99.90
74488;DHT22;63019;51.080;13.642;2024-02-15T01:54:22;9.90;99.90
74488;DHT22;63019;51.080;13.642;2024-02-15T01:55:25;9.90;99.90
74488;DHT22;63019;51.080;13.642;2024-02-15T01:56:28;9.80;99.90
74488;DHT22;63019;51.080;13.642;2024-02-15T01:57:30;9.80;99.90
74488;DHT22;63019;51.080;13.642;2024-02-15T01:58:32;9.80;99.90
74488;DHT22;63019;51.080;13.642;2024-02-15T01:59:34;9.80;99.90
74488;DHT22;63019;51.080;13.642;2024-02-15T02:00:37;9.90;99.90
74488;DHT22;63019;51.080;13.642;2024-02-15T02:01:42;9.90;99.90
74488;DHT22;63019;51.080;13.642;2024-02-15T02:02:45;10.00;99.90
74488;DHT22;63019;51.080;13.642;2024-02-15T02:03:47;10.00;99.90
74488;DHT22;63019;51.080;13.642;2024-02-15T02:04:50;10.00;99.90
74488;DHT22;63019;51.080;13.642;2024-02-15T02:05:52;10.00;99.90
74488;DHT22;63019;51.080;13.642;2024-02-15T02:06:54;10.00;99.90
74488;DHT22;63019;51.080;13.642;2024-02-15T02:08:00;10.00;99.90
74488;DHT22;63019;51.080;13.642;2024-02-15T02:09:10;9.90;99.90
74488;DHT22;63019;51.080;13.642;2024-02-15T02:10:14;9.90;99.90
74488;DHT22;63019;51.080;13.642;2024-02-15T02:11:17;9.80;99.90
74488;DHT22;63019;51.080;13.642;2024-02-15T02:12:19;9.80;99.90
74488;DHT22;63019;51.080;13.642;2024-02-15T02:13:21;9.70;99.90
74488;DHT22;63019;51.080;13.642;2024-02-15T02:14:23;9.70;99.90
74488;DHT22;63019;51.080;13.642;2024-02-15T02:15:27;9.70;99.90
74488;DHT22;63019;51.080;13.642;2024-02-15T02:16:30;9.60;99.90
74488;DHT22;63019;51.080;13.642;2024-02-15T02:17:37;9.60;99.90
74488;DHT22;63019;51.080;13.642;2024-02-15T02:18:39;9.50;99.90
74488;DHT22;63019;51.080;13.642;2024-02-15T02:19:42;9.50;99.90
74488;DHT22;63019;51.080;13.642;2024-02-15T02:20:44;9.50;99.90
74488;DHT22;63019;51.080;13.642;2024-02-15T02:21:47;9.40;99.90
74488;DHT22;63019;51.080;13.642;2024-02-15T02:22:54;9.40;99.90
74488;DHT22;63019;51.080;13.642;2024-02-15T02:23:58;9.30;99.90
74488;DHT22;63019;51.080;13.642;2024-02-15T02:25:05;9.30;99.90
74488;DHT22;63019;51.080;13.642;2024-02-15T02:26:10;9.30;99.90
74488;DHT22;63019;51.080;13.642;2024-02-15T02:27:13;9.20;99.90
74488;DHT22;63019;51.080;13.642;2024-02-15T02:28:17;9.20;99.90
74488;DHT22;63019;51.080;13.642;2024-02-15T02:29:19;9.20;99.90
74488;DHT22;63019;51.080;13.642;2024-02-15T02:30:22;9.20;99.90
74488;DHT22;63019;51.080;13.642;2024-02-15T02:31:24;9.20;99.90
74488;DHT22;63019;51.080;13.642;2024-02-15T02:32:26;9.20;99.90
74488;DHT22;63019;51.080;13.642;2024-02-15T02:33:29;9.20;99.90
74488;DHT22;63019;51.080;13.642;2024-02-15T02:34:31;9.20;99.90
74488;DHT22;63019;51.080;13.642;2024-02-15T02:35:33;9.20;99.90
74488;DHT22;63019;51.080;13.642;2024-02-15T02:36:35;9.20;99.90
74488;DHT22;63019;51.080;13.642;2024-02-15T02:37:39;9.20;99.90
74488;DHT22;63019;51.080;13.642;2024-02-15T02:38:41;9.30;99.90
74488;DHT22;63019;51.080;13.642;2024-02-15T02:39:43;9.30;99.90
74488;DHT22;63019;51.080;13.642;2024-02-15T02:40:45;9.40;99.90
74488;DHT22;63019;51.080;13.642;2024-02-15T02:41:47;9.40;99.90
74488;DHT22;63019;51.080;13.642;2024-02-15T02:42:53;9.40;99.90
74488;DHT22;63019;51.080;13.642;2024-02-15T02:43:58;9.40;99.90
74488;DHT22;63019;51.080;13.642;2024-02-15T02:44:59;9.40;99.90
74488;DHT22;63019;51.080;13.642;2024-02-15T02:46:01;9.40;99.90
74488;DHT22;63019;51.080;13.642;2024-02-15T02:47:03;9.50;99.90
74488;DHT22;63019;51.080;13.642;2024-02-15T02:48:05;9.50;99.90
74488;DHT22;63019;51.080;13.642;2024-02-15T02:49:08;9.60;99.90
74488;DHT22;63019;51.080;13.642;2024-02-15T02:50:10;9.60;99.90
74488;DHT22;63019;51.080;13.642;2024-02-15T02:51:12;9.60;99.90
74488;DHT22;63019;51.080;13.642;2024-02-15T02:52:14;9.60;99.90
74488;DHT22;63019;51.080;13.642;2024-02-15T02:53:16;9.70;99.90
74488;DHT22;63019;51.080;13.642;2024-02-15T02:54:18;9.60;99.90
74488;DHT22;63019;51.080;13.642;2024-02-15T02:55:20;9.70;99.90
74488;DHT22;63019;51.080;13.642;2024-02-15T02:56:22;9.60;99.90
74488;DHT22;63019;51.080;13.642;2024-02-15T02:57:25;9.70;99.90
74488;DHT22;63019;51.080;13.642;2024-02-15T02:58:26;9.80;99.90
74488;DHT22;63019;51.080;13.642;2024-02-15T02:59:28;9.80;99.90
74488;DHT22;63019;51.080;13.642;2024-02-15T03:00:30;9.80;99.90
74488;DHT22;63019;51.080;13.642;2024-02-15T03:01:33;9.90;99.90
74488;DHT22;63019;51.080;13.642;2024-02-15T03:02:35;9.90;99.90
74488;DHT22;63019;51.080;13.642;2024-02-15T03:03:37;9.90;99.90
74488;DHT22;63019;51.080;13.642;2024-02-15T03:04:40;9.90;99.90
74488;DHT22;63019;51.080;13.642;2024-02-15T03:05:42;9.90;99.90
74488;DHT22;63019;51.080;13.642;2024-02-15T03:06:44;9.90;99.90
74488;DHT22;63019;51.080;13.642;2024-02-15T03:07:46;10.00;99.90
74488;DHT22;63019;51.080;13.642;2024-02-15T03:08:48;9.90;99.90
74488;DHT22;63019;51.080;13.642;2024-02-15T03:09:51;10.00;99.90
74488;DHT22;63019;51.080;13.642;2024-02-15T03:10:53;9.90;99.90
74488;DHT22;63019;51.080;13.642;2024-02-15T03:11:55;9.90;99.90
74488;DHT22;63019;51.080;13.642;2024-02-15T03:12:58;9.90;99.90
74488;DHT22;63019;51.080;13.642;2024-02-15T03:14:00;10.00;99.90
74488;DHT22;63019;51.080;13.642;2024-02-15T03:15:03;9.90;99.90
74488;DHT22;63019;51.080;13.642;2024-02-15T03:16:05;10.00;99.90
74488;DHT22;63019;51.080;13.642;2024-02-15T03:17:07;10.00;99.90
74488;DHT22;63019;51.080;13.642;2024-02-15T03:18:10;10.00;99.90
74488;DHT22;63019;51.080;13.642;2024-02-15T03:19:12;10.00;99.90
74488;DHT22;63019;51.080;13.642;2024-02-15T03:20:14;10.00;99.90
74488;DHT22;63019;51.080;13.642;2024-02-15T03:21:23;10.00;99.90
74488;DHT22;63019;51.080;13.642;2024-02-15T03:22:27;10.00;99.90
74488;DHT22;63019;51.080;13.642;2024-02-15T03:23:30;9.90;99.90
74488;DHT22;63019;51.080;13.642;2024-02-15T03:24:34;9.90;99.90
74488;DHT22;63019;51.080;13.642;2024-02-15T03:25:36;9.90;99.90
74488;DHT22;63019;51.080;13.642;2024-02-15T03:26:38;9.80;99.90
74488;DHT22;63019;51.080;13.642;2024-02-15T03:27:41;9.80;99.90
74488;DHT22;63019;51.080;13.642;2024-02-15T03:28:43;9.70;99.90
74488;DHT22;63019;51.080;13.642;2024-02-15T03:29:46;9.70;99.90
74488;DHT22;63019;51.080;13.642;2024-02-15T03:30:48;9.70;99.90
74488;DHT22;63019;51.080;13.642;2024-02-15T03:31:51;9.60;99.90
74488;DHT22;63019;51.080;13.642;2024-02-15T03:32:55;9.70;99.90
74488;DHT22;63019;51.080;13.642;2024-02-15T03:34:00;9.80;99.90
74488;DHT22;63019;51.080;13.642;2024-02-15T03:35:03;9.90;99.90
74488;DHT22;63019;51.080;13.642;2024-02-15T03:36:05;10.00;99.90
74488;DHT22;63019;51.080;13.642;2024-02-15T03:37:07;10.00;99.90
74488;DHT22;63019;51.080;13.642;2024-02-15T03:38:09;10.00;99.90
74488;DHT22;63019;51.080;13.642;2024-02-15T03:39:11;10.00;99.90
74488;DHT22;63019;51.080;13.642;2024-02-15T03:40:13;9.90;99.90
74488;DHT22;63019;51.080;13.642;2024-02-15T03:41:16;9.90;99.90
74488;DHT22;63019;51.080;13.642;2024-02-15T03:42:18;9.80;99.90
74488;DHT22;63019;51.080;13.642;2024-02-15T03:43:19;9.80;99.90
74488;DHT22;63019;51.080;13.642;2024-02-15T03:44:23;9.80;99.90
74488;DHT22;63019;51.080;13.642;2024-02-15T03:45:27;9.90;99.90
74488;DHT22;63019;51.080;13.642;2024-02-15T03:46:29;9.90;99.90
74488;DHT22;63019;51.080;13.642;2024-02-15T03:47:31;9.90;99.90
74488;DHT22;63019;51.080;13.642;2024-02-15T03:48:35;9.90;99.90
74488;DHT22;63019;51.080;13.642;2024-02-15T03:49:37;9.90;99.90
74488;DHT22;63019;51.080;13.642;2024-02-15T03:50:39;9.90;99.90
74488;DHT22;63019;51.080;13.642;2024-02-15T03:51:40;9.90;99.90
74488;DHT22;63019;51.080;13.642;2024-02-15T03:52:45;9.90;99.90
74488;DHT22;63019;51.080;13.642;2024-02-15T03:53:47;9.90;99.90
74488;DHT22;63019;51.080;13.642;2024-02-15T03:54:52;10.00;99.90
74488;DHT22;63019;51.080;13.642;2024-02-15T03:55:55;10.10;99.90
74488;DHT22;63019;51.080;13.642;2024-02-15T03:56:57;10.10;99.90
74488;DHT22;63019;51.080;13.642;2024-02-15T03:57:59;10.10;99.90
74488;DHT22;63019;51.080;13.642;2024-02-15T03:59:01;10.20;99.90
74488;DHT22;63019;51.080;13.642;2024-02-15T04:00:07;10.20;99.90
74488;DHT22;63019;51.080;13.642;2024-02-15T04:01:10;10.30;99.90
74488;DHT22;63019;51.080;13.642;2024-02-15T04:02:12;10.30;99.90
74488;DHT22;63019;51.080;13.642;2024-02-15T04:03:16;10.30;99.90
74488;DHT22;63019;51.080;13.642;2024-02-15T04:04:18;10.40;99.90
74488;DHT22;63019;51.080;13.642;2024-02-15T04:05:22;10.40;99.90
74488;DHT22;63019;51.080;13.642;2024-02-15T04:06:25;10.40;99.90
74488;DHT22;63019;51.080;13.642;2024-02-15T04:07:29;10.40;99.90
74488;DHT22;63019;51.080;13.642;2024-02-15T04:08:31;10.30;99.90
74488;DHT22;63019;51.080;13.642;2024-02-15T04:09:33;10.40;99.90
74488;DHT22;63019;51.080;13.642;2024-02-15T04:10:37;10.40;99.90
74488;DHT22;63019;51.080;13.642;2024-02-15T04:11:39;10.30;99.90
74488;DHT22;63019;51.080;13.642;2024-02-15T04:12:41;10.40;99.90
74488;DHT22;63019;51.080;13.642;2024-02-15T04:13:45;10.30;99.90
74488;DHT22;63019;51.080;13.642;2024-02-15T04:14:47;10.40;99.90
74488;DHT22;63019;51.080;13.642;2024-02-15T04:15:50;10.40;99.90
74488;DHT22;63019;51.080;13.642;2024-02-15T04:16:54;10.40;99.90
74488;DHT22;63019;51.080;13.642;2024-02-15T04:17:56;10.40;99.90
74488;DHT22;63019;51.080;13.642;2024-02-15T04:18:59;10.40;99.90
74488;DHT22;63019;51.080;13.642;2024-02-15T04:20:01;10.40;99.90
74488;DHT22;63019;51.080;13.642;2024-02-15T04:21:05;10.40;99.90
74488;DHT22;63019;51.080;13.642;2024-02-15T04:22:09;10.40;99.90
74488;DHT22;63019;51.080;13.642;2024-02-15T04:23:12;10.40;99.90
74488;DHT22;63019;51.080;13.642;2024-02-15T04:24:14;10.40;99.90
74488;DHT22;63019;51.080;13.642;2024-02-15T04:25:16;10.30;99.90
74488;DHT22;63019;51.080;13.642;2024-02-15T04:26:20;10.30;99.90
74488;DHT22;63019;51.080;13.642;2024-02-15T04:27:22;10.30;99.90
74488;DHT22;63019;51.080;13.642;2024-02-15T04:28:24;10.30;99.90
74488;DHT22;63019;51.080;13.642;2024-02-15T04:29:26;10.20;99.90
74488;DHT22;63019;51.080;13.642;2024-02-15T04:30:29;10.20;99.90
74488;DHT22;63019;51.080;13.642;2024-02-15T04:31:31;10.20;99.90
74488;DHT22;63019;51.080;13.642;2024-02-15T04:32:38;10.20;99.90
74488;DHT22;63019;51.080;13.642;2024-02-15T04:33:40;10.20;99.90
74488;DHT22;63019;51.080;13.642;2024-02-15T04:34:43;10.20;99.90
74488;DHT22;63019;51.080;13.642;2024-02-15T04:35:47;10.20;99.90
74488;DHT22;63019;51.080;13.642;2024-02-15T04:36:51;10.30;99.90
74488;DHT22;63019;51.080;13.642;2024-02-15T04:37:57;10.40;99.90
74488;DHT22;63019;51.080;13.642;2024-02-15T04:38:59;10.40;99.90
74488;DHT22;63019;51.080;13.642;2024-02-15T04:40:04;10.50;99.90
74488;DHT22;63019;51.080;13.642;2024-02-15T04:41:14;10.50;99.90
74488;DHT22;63019;51.080;13.642;2024-02-15T04:42:16;10.50;99.90
74488;DHT22;63019;51.080;13.642;2024-02-15T04:43:20;10.60;99.90
74488;DHT22;63019;51.080;13.642;2024-02-15T04:44:24;10.60;99.90
74488;DHT22;63019;51.080;13.642;2024-02-15T04:45:29;10.60;99.90
74488;DHT22;63019;51.080;13.642;2024-02-15T04:46:32;10.60;99.90
74488;DHT22;63019;51.080;13.642;2024-02-15T04:47:36;10.70;99.90
74488;DHT22;63019;51.080;13.642;2024-02-15T04:48:38;10.70;99.90
74488;DHT22;63019;51.080;13.642;2024-02-15T04:49:40;10.70;99.90
74488;DHT22;63019;51.080;13.642;2024-02-15T04:50:43;10.80;99.90
74488;DHT22;63019;51.080;13.642;2024-02-15T04:51:46;10.80;99.90
74488;DHT22;63019;51.080;13.642;2024-02-15T04:52:49;10.80;99.90
74488;DHT22;63019;51.080;13.642;2024-02-15T04:53:51;10.80;99.90
74488;DHT22;63019;51.080;13.642;2024-02-15T04:54:53;10.80;99.90
74488;DHT22;63019;51.080;13.642;2024-02-15T04:56:00;10.70;99.90
74488;DHT22;63019;51.080;13.642;2024-02-15T04:57:04;10.70;99.90
74488;DHT22;63019;51.080;13.642;2024-02-15T04:58:08;10.70;99.90
74488;DHT22;63019;51.080;13.642;2024-02-15T04:59:12;10.70;99.90
74488;DHT22;63019;51.080;13.642;2024-02-15T05:00:16;10.70;99.90
74488;DHT22;63019;51.080;13.642;2024-02-15T05:01:22;10.70;99.90
74488;DHT22;63019;51.080;13.642;2024-02-15T05:02:24;10.70;99.90
74488;DHT22;63019;51.080;13.642;2024-02-15T05:03:26;10.70;99.90
74488;DHT22;63019;51.080;13.642;2024-02-15T05:04:28;10.70;99.90
74488;DHT22;63019;51.080;13.642;2024-02-15T05:05:30;10.70;99.90
74488;DHT22;63019;51.080;13.642;2024-02-15T05:06:32;10.60;99.90
74488;DHT22;63019;51.080;13.642;2024-02-15T05:07:34;10.70;99.90
74488;DHT22;63019;51.080;13.642;2024-02-15T05:08:39;10.70;99.90
74488;DHT22;63019;51.080;13.642;2024-02-15T05:09:44;10.60;99.90
74488;DHT22;63019;51.080;13.642;2024-02-15T05:10:46;10.70;99.90
74488;DHT22;63019;51.080;13.642;2024-02-15T05:11:48;10.60;99.90
74488;DHT22;63019;51.080;13.642;2024-02-15T05:12:50;10.60;99.90
74488;DHT22;63019;51.080;13.642;2024-02-15T05:13:52;10.70;99.90
74488;DHT22;63019;51.080;13.642;2024-02-15T05:14:54;10.70;99.90
74488;DHT22;63019;51.080;13.642;2024-02-15T05:15:56;10.70;99.90
74488;DHT22;63019;51.080;13.642;2024-02-15T05:16:58;10.70;99.90
74488;DHT22;63019;51.080;13.642;2024-02-15T05:18:01;10.70;99.90
74488;DHT22;63019;51.080;13.642;2024-02-15T05:19:03;10.80;99.90
74488;DHT22;63019;51.080;13.642;2024-02-15T05:20:07;10.70;99.90
74488;DHT22;63019;51.080;13.642;2024-02-15T05:21:13;10.70;99.90
74488;DHT22;63019;51.080;13.642;2024-02-15T05:22:15;10.70;99.90
74488;DHT22;63019;51.080;13.642;2024-02-15T05:23:16;10.80;99.90
74488;DHT22;63019;51.080;13.642;2024-02-15T05:24:19;10.80;99.90
74488;DHT22;63019;51.080;13.642;2024-02-15T05:25:21;10.80;99.90
74488;DHT22;63019;51.080;13.642;2024-02-15T05:26:26;10.80;99.90
74488;DHT22;63019;51.080;13.642;2024-02-15T05:27:29;10.80;99.90
74488;DHT22;63019;51.080;13.642;2024-02-15T05:28:31;10.70;99.90
74488;DHT22;63019;51.080;13.642;2024-02-15T05:29:33;10.70;99.90
74488;DHT22;63019;51.080;13.642;2024-02-15T05:30:36;10.70;99.90
74488;DHT22;63019;51.080;13.642;2024-02-15T05:31:41;10.60;99.90
74488;DHT22;63019;51.080;13.642;2024-02-15T05:32:43;10.60;99.90
74488;DHT22;63019;51.080;13.642;2024-02-15T05:33:47;10.60;99.90
74488;DHT22;63019;51.080;13.642;2024-02-15T05:34:50;10.50;99.90
74488;DHT22;63019;51.080;13.642;2024-02-15T05:35:52;10.50;99.90
74488;DHT22;63019;51.080;13.642;2024-02-15T05:36:55;10.50;99.90
74488;DHT22;63019;51.080;13.642;2024-02-15T05:37:57;10.40;99.90
74488;DHT22;63019;51.080;13.642;2024-02-15T05:38:58;10.40;99.90
74488;DHT22;63019;51.080;13.642;2024-02-15T05:40:00;10.40;99.90
74488;DHT22;63019;51.080;13.642;2024-02-15T05:41:02;10.40;99.90
74488;DHT22;63019;51.080;13.642;2024-02-15T05:42:05;10.40;99.90
74488;DHT22;63019;51.080;13.642;2024-02-15T05:43:06;10.40;99.90
74488;DHT22;63019;51.080;13.642;2024-02-15T05:44:08;10.50;99.90
74488;DHT22;63019;51.080;13.642;2024-02-15T05:46:26;10.50;99.90
74488;DHT22;63019;51.080;13.642;2024-02-15T05:47:29;10.50;99.90
74488;DHT22;63019;51.080;13.642;2024-02-15T05:48:32;10.50;99.90
74488;DHT22;63019;51.080;13.642;2024-02-15T05:49:36;10.60;99.90
74488;DHT22;63019;51.080;13.642;2024-02-15T05:50:38;10.60;99.90
74488;DHT22;63019;51.080;13.642;2024-02-15T05:51:41;10.60;99.90
74488;DHT22;63019;51.080;13.642;2024-02-15T05:52:49;10.60;99.90
74488;DHT22;63019;51.080;13.642;2024-02-15T05:53:53;10.50;99.90
74488;DHT22;63019;51.080;13.642;2024-02-15T05:55:00;10.50;99.90
74488;DHT22;63019;51.080;13.642;2024-02-15T05:56:06;10.50;99.90
74488;DHT22;63019;51.080;13.642;2024-02-15T05:57:15;10.40;99.90
74488;DHT22;63019;51.080;13.642;2024-02-15T05:58:18;10.40;99.90
74488;DHT22;63019;51.080;13.642;2024-02-15T05:59:20;10.40;99.90
74488;DHT22;63019;51.080;13.642;2024-02-15T06:00:23;10.30;99.90
74488;DHT22;63019;51.080;13.642;2024-02-15T06:01:25;10.30;99.90
74488;DHT22;63019;51.080;13.642;2024-02-15T06:02:27;10.30;99.90
74488;DHT22;63019;51.080;13.642;2024-02-15T06:03:30;10.30;99.90
74488;DHT22;63019;51.080;13.642;2024-02-15T06:04:33;10.30;99.90
74488;DHT22;63019;51.080;13.642;2024-02-15T06:05:35;10.20;99.90
74488;DHT22;63019;51.080;13.642;2024-02-15T06:06:37;10.30;99.90
74488;DHT22;63019;51.080;13.642;2024-02-15T06:07:40;10.20;99.90
74488;DHT22;63019;51.080;13.642;2024-02-15T06:08:46;10.20;99.90
74488;DHT22;63019;51.080;13.642;2024-02-15T06:09:49;10.20;99.90
74488;DHT22;63019;51.080;13.642;2024-02-15T06:10:51;10.20;99.90
74488;DHT22;63019;51.080;13.642;2024-02-15T06:11:54;10.20;99.90
74488;DHT22;63019;51.080;13.642;2024-02-15T06:12:57;10.20;99.90
74488;DHT22;63019;51.080;13.642;2024-02-15T06:14:02;10.10;99.90
74488;DHT22;63019;51.080;13.642;2024-02-15T06:15:04;10.20;99.90
74488;DHT22;63019;51.080;13.642;2024-02-15T06:16:07;10.20;99.90
74488;DHT22;63019;51.080;13.642;2024-02-15T06:17:11;10.10;99.90
74488;DHT22;63019;51.080;13.642;2024-02-15T06:18:13;10.10;99.90
74488;DHT22;63019;51.080;13.642;2024-02-15T06:19:16;10.20;99.90
74488;DHT22;63019;51.080;13.642;2024-02-15T06:20:18;10.10;99.90
74488;DHT22;63019;51.080;13.642;2024-02-15T06:21:21;10.20;99.90
74488;DHT22;63019;51.080;13.642;2024-02-15T06:22:25;10.20;99.90
74488;DHT22;63019;51.080;13.642;2024-02-15T06:23:28;10.20;99.90
74488;DHT22;63019;51.080;13.642;2024-02-15T06:24:30;10.10;99.90
74488;DHT22;63019;51.080;13.642;2024-02-15T06:25:32;10.10;99.90
74488;DHT22;63019;51.080;13.642;2024-02-15T06:26:34;10.10;99.90
74488;DHT22;63019;51.080;13.642;2024-02-15T06:27:37;10.20;99.90
74488;DHT22;63019;51.080;13.642;2024-02-15T06:28:42;10.20;99.90
74488;DHT22;63019;51.080;13.642;2024-02-15T06:30:02;10.20;99.90
74488;DHT22;63019;51.080;13.642;2024-02-15T06:31:23;10.20;99.90
74488;DHT22;63019;51.080;13.642;2024-02-15T06:32:44;10.20;99.90
74488;DHT22;63019;51.080;13.642;2024-02-15T06:34:04;10.20;99.90
74488;DHT22;63019;51.080;13.642;2024-02-15T06:35:24;10.20;99.90